Stavanger, Norway

5:34 AM CEST on October 25, 2014 (GMT +0200)
Sola | Change Station
CLOSE
Current Station
Airport
Location: Stavanger,
Elevation: 30 ft
Nearby Weather Stations

Elev 30 ft 58.88 °N, 5.64 °E | Updated 14 minutes ago

Light Rain Showers
Light Showers Rain
48 °F
Feels Like 48 °F
N
7
Wind Variable Wind from South

Today
High -- | Low -- °F
--% Chance of Precip.
Yesterday
High -- | Low -- °F
Precip. -- in
8:37 AM 6:04 PM
New Moon, 2% visible
Pressure 29.74 in
Visibility 6.2 miles
Clouds Scattered Clouds 2100 ft
Mostly Cloudy 4900 ft
Dew Point 46 °F
Humidity 93%
Rainfall 0.00 in
Snow Depth Not available.
UV 0 out of 12
Pollen Not available.
Air Quality Not available.
Flu Activity Not available.
METAR ENZV 250320Z 19006KT 9999 -SHRA SCT021 BKN049 09/08 Q1007

More Conditions Fewer Conditions

Pressure 29.74 in
Visibility 6.2 miles
Clouds Scattered Clouds 2100 ft
Mostly Cloudy 4900 ft
Dew Point 46 °F
Humidity 93%
Rainfall 0.00 in
Snow Depth Not available.
UV 0 out of 12
Pollen Not available.
Air Quality Not available.
Flu Activity Not available.
METAR ENZV 250320Z 19006KT 9999 -SHRA SCT021 BKN049 09/08 Q1007

More Conditions Fewer Conditions

10-Day Weather Forecast

Almanac

Astronomy

Oct. 25, 2014 Rise Set
Actual Time 8:37 AM CEST 6:04 PM CEST
Civil Twilight 7:55 AM CEST 6:46 PM CEST
Nautical Twilight 7:08 AM CEST 7:33 PM CEST
Astronomical Twilight 6:21 AM CEST 8:19 PM CEST
Moon 10:17 AM CEST 6:56 PM CEST
Length of Visible Light 10h 50m
Length of Day
9h 26m
Tomorrow will be 5m 1s shorter.
New Moon, 2% of the Moon is Illuminated
Oct 24
New Moon
Oct 30
First Quarter
Nov 6
Full
Nov 14
Last Quarter
Nov 22
New

Yesterday's Extremes

Country Highs Country Lows

Community

WunderPhotos

Upload Photos

1,764,771 photos uploaded!

Nearby

Snow Depth

Not available.

Earthquake Activity

City Distance Mag. Time & Date
No recent earthquake activity has been reported nearby.
Minimum magnitude displayed is 2.5.

Coastal Water Temperatures

Place Temperature
No Stations Reporting

Nearby Weather Stations